createdAt,value
2023-01-09T00:05:10.373Z,11.8
2023-01-09T00:10:45.808Z,11.8
2023-01-09T00:16:22.154Z,11.8
2023-01-09T00:21:58.165Z,11.8
2023-01-09T00:27:33.293Z,11.8
2023-01-09T00:33:12.906Z,11.8
2023-01-09T00:38:49.321Z,11.7
2023-01-09T00:44:24.490Z,11.7
2023-01-09T00:50:00.329Z,11.7
2023-01-09T00:55:35.792Z,11.6
2023-01-09T01:01:15.704Z,11.6
2023-01-09T01:06:52.862Z,11.6
2023-01-09T01:12:29.823Z,11.6
2023-01-09T01:18:05.263Z,11.6
2023-01-09T01:23:40.430Z,11.6
2023-01-09T01:29:16.841Z,11.6
2023-01-09T01:34:51.737Z,11.6
2023-01-09T01:40:27.742Z,11.6
2023-01-09T01:46:02.957Z,11.5
2023-01-09T01:51:39.418Z,11.5
2023-01-09T01:57:15.267Z,11.4
2023-01-09T02:02:52.172Z,11.4
2023-01-09T02:08:29.066Z,11.4
2023-01-09T02:14:04.597Z,11.3
2023-01-09T02:19:40.963Z,11.3
2023-01-09T02:25:21.718Z,11.3
2023-01-09T02:30:58.267Z,11.3
2023-01-09T02:36:33.532Z,11.3
2023-01-09T02:42:08.673Z,11.3
2023-01-09T02:48:05.674Z,11.3
2023-01-09T02:53:38.645Z,11.2
2023-01-09T02:59:13.752Z,11.2
2023-01-09T03:04:49.767Z,11.2
2023-01-09T03:10:24.753Z,11.2
2023-01-09T03:15:59.916Z,11.1
2023-01-09T03:21:36.895Z,11.2
2023-01-09T03:27:12.288Z,11.1
2023-01-09T03:32:48.199Z,11
2023-01-09T03:38:23.450Z,11.1
2023-01-09T03:43:58.448Z,11.1
2023-01-09T03:49:55.576Z,11
2023-01-09T03:55:28.707Z,10.9
2023-01-09T04:01:05.097Z,10.9
2023-01-09T04:06:41.946Z,10.9
2023-01-09T04:12:17.529Z,10.9
2023-01-09T04:17:52.508Z,10.7
2023-01-09T04:23:28.772Z,10.7
2023-01-09T04:29:03.937Z,10.7
2023-01-09T04:34:40.020Z,10.7
2023-01-09T04:40:15.158Z,10.7
2023-01-09T04:45:50.646Z,10.7
2023-01-09T04:51:26.280Z,10.7
2023-01-09T04:57:01.272Z,10.7
2023-01-09T05:02:37.324Z,10.6
2023-01-09T05:08:13.679Z,10.5
2023-01-09T05:13:48.756Z,10.4
2023-01-09T05:19:24.374Z,10.3
2023-01-09T05:25:01.059Z,10.2
2023-01-09T05:30:36.239Z,10.1
2023-01-09T05:36:11.296Z,10.1
2023-01-09T05:41:46.446Z,10.1
2023-01-09T05:47:43.594Z,10.2
2023-01-09T05:53:16.661Z,10.4
2023-01-09T05:58:53.175Z,10.4
2023-01-09T06:04:28.375Z,10.5
2023-01-09T06:10:04.547Z,10.5
2023-01-09T06:15:39.969Z,10.5
2023-01-09T06:21:17.474Z,10.4
2023-01-09T06:26:52.877Z,10.4
2023-01-09T06:32:28.577Z,10.4
2023-01-09T06:38:03.609Z,10.4
2023-01-09T06:43:38.629Z,10.4
2023-01-09T06:49:36.495Z,10.5
2023-01-09T06:55:09.071Z,10.5
2023-01-09T07:00:44.383Z,10.5
2023-01-09T07:06:19.446Z,10.5
2023-01-09T07:11:55.865Z,10.4
2023-01-09T07:17:31.480Z,10.5
2023-01-09T07:23:06.536Z,10.5
2023-01-09T07:28:41.467Z,10.5
2023-01-09T07:34:17.961Z,10.5
2023-01-09T07:39:53.303Z,10.4
2023-01-09T07:45:29.537Z,10.4
2023-01-09T07:51:05.836Z,10.4
2023-01-09T07:56:47.561Z,9.5
2023-01-09T08:02:22.235Z,8.9
2023-01-09T08:08:00.143Z,8.5
2023-01-09T08:13:36.892Z,8.4
2023-01-09T08:19:12.039Z,8.5
2023-01-09T08:24:49.015Z,8.3
2023-01-09T08:30:25.295Z,8
2023-01-09T08:36:00.787Z,7.9
2023-01-09T08:41:36.642Z,7.9
2023-01-09T08:47:11.865Z,7.8
2023-01-09T08:52:47.892Z,8.1
2023-01-09T08:58:23.228Z,8.4
2023-01-09T09:03:58.772Z,8.4
2023-01-09T09:09:35.007Z,8.5
2023-01-09T09:15:10.621Z,8.5
2023-01-09T09:20:45.950Z,8.6
2023-01-09T09:26:22.320Z,8.7
2023-01-09T09:32:12.471Z,8.6
2023-01-09T09:38:06.590Z,8.5
2023-01-09T09:43:45.152Z,8.8
2023-01-09T09:49:21.767Z,8.7
2023-01-09T09:54:57.309Z,8.7
2023-01-09T10:00:32.740Z,8.6
2023-01-09T10:06:08.201Z,8.4
2023-01-09T10:11:44.247Z,8.8
2023-01-09T10:17:19.614Z,9.6
2023-01-09T10:22:55.548Z,10.4
2023-01-09T10:28:30.914Z,10.5
2023-01-09T10:34:06.415Z,8.7
2023-01-09T10:39:41.705Z,8.7
2023-01-09T10:45:16.985Z,8.6
2023-01-09T10:51:08.285Z,9.1
2023-01-09T10:56:43.563Z,9.7
2023-01-09T11:02:18.949Z,9.1
2023-01-09T11:07:55.249Z,9
2023-01-09T11:13:30.922Z,10.3
2023-01-09T11:19:06.912Z,10.4
2023-01-09T11:24:41.722Z,10.4
2023-01-09T11:30:18.363Z,9.5
2023-01-09T11:35:54.509Z,9.2
2023-01-09T11:41:29.638Z,9.3
2023-01-09T11:47:04.687Z,10.7
2023-01-09T11:52:40.785Z,9.9
2023-01-09T11:58:15.786Z,9.2
2023-01-09T12:03:55.816Z,8.5
2023-01-09T12:09:31.594Z,8.6
2023-01-09T12:15:09.931Z,9.3
2023-01-09T12:20:48.790Z,10
2023-01-09T12:26:24.205Z,10.1
2023-01-09T12:32:00.550Z,10.5
2023-01-09T12:37:36.195Z,9.9
2023-01-09T12:43:11.639Z,9.5
2023-01-09T12:48:46.913Z,9.7
2023-01-09T12:54:23.649Z,9.8
2023-01-09T13:00:00.181Z,9.4
2023-01-09T13:05:35.871Z,9.4
2023-01-09T13:11:19.746Z,10
2023-01-09T13:16:56.595Z,9.7
2023-01-09T13:22:32.571Z,9.6
2023-01-09T13:28:08.041Z,9.3
2023-01-09T13:33:44.526Z,9.4
2023-01-09T13:39:20.887Z,9.5
2023-01-09T13:44:58.368Z,9.7
2023-01-09T13:50:33.500Z,10
2023-01-09T13:56:11.701Z,10
2023-01-09T14:01:48.113Z,10.2
2023-01-09T14:07:23.790Z,10.1
2023-01-09T14:12:58.683Z,10.1
2023-01-09T14:18:35.377Z,9.8
2023-01-09T14:24:11.351Z,9.3
2023-01-09T14:29:47.165Z,9.4
2023-01-09T14:35:22.545Z,9.3
2023-01-09T14:40:58.064Z,9.4
2023-01-09T14:46:33.099Z,9.4
2023-01-09T14:52:08.019Z,9.7
2023-01-09T14:57:42.858Z,9.8
2023-01-09T15:03:19.472Z,9.7
2023-01-09T15:08:55.574Z,9.6
2023-01-09T15:14:35.246Z,9.4
2023-01-09T15:20:10.417Z,9.5
2023-01-09T15:25:45.646Z,9.3
2023-01-09T15:31:21.419Z,9.2
2023-01-09T15:36:57.328Z,9.1
2023-01-09T15:42:33.263Z,9.2
2023-01-09T15:48:08.741Z,9.2
2023-01-09T15:53:44.169Z,9.3
2023-01-09T15:59:19.675Z,8.9
2023-01-09T16:04:54.880Z,8.9
2023-01-09T16:10:29.619Z,8.8
2023-01-09T16:16:04.753Z,8.5
2023-01-09T16:21:39.843Z,8.4
2023-01-09T16:27:20.133Z,8.2
2023-01-09T16:32:56.469Z,8
2023-01-09T16:38:31.503Z,7.8
2023-01-09T16:44:16.948Z,7.5
2023-01-09T16:49:51.999Z,7.6
2023-01-09T16:55:27.083Z,9.4
2023-01-09T17:01:02.312Z,10.2
2023-01-09T17:06:39.284Z,8.8
2023-01-09T17:12:18.334Z,7.7
2023-01-09T17:17:53.379Z,7.7
2023-01-09T17:23:29.100Z,7.8
2023-01-09T17:29:04.510Z,8
2023-01-09T17:34:45.435Z,8.1
2023-01-09T17:40:20.990Z,8.1
2023-01-09T17:45:56.609Z,8.4
2023-01-09T17:51:33.297Z,8.6
2023-01-09T17:57:08.870Z,8.6
2023-01-09T18:02:44.161Z,8.4
2023-01-09T18:08:20.313Z,8.2
2023-01-09T18:13:56.651Z,7.9
2023-01-09T18:19:32.220Z,7.8
2023-01-09T18:25:07.399Z,8
2023-01-09T18:30:52.514Z,8.4
2023-01-09T18:36:48.201Z,8.6
2023-01-09T18:42:53.068Z,8.7
2023-01-09T18:48:50.281Z,8.8
2023-01-09T18:54:23.177Z,8.9
2023-01-09T19:00:21.858Z,9.1
2023-01-09T19:05:59.500Z,9.3
2023-01-09T19:11:37.833Z,9.3
2023-01-09T19:17:17.780Z,9.4
2023-01-09T19:22:54.036Z,9.5
2023-01-09T19:28:40.550Z,9.5
2023-01-09T19:34:15.605Z,9.4
2023-01-09T19:39:52.707Z,9.4
2023-01-09T19:45:30.426Z,9.4
2023-01-09T19:51:14.036Z,9.5
2023-01-09T19:57:09.807Z,9.6
2023-01-09T20:02:46.103Z,9.6
2023-01-09T20:08:21.202Z,9.5
2023-01-09T20:13:56.317Z,9.5
2023-01-09T20:19:49.655Z,9.5
2023-01-09T20:25:52.943Z,9.4
2023-01-09T20:31:28.829Z,9.4
2023-01-09T20:37:15.851Z,9.4
2023-01-09T20:42:53.736Z,9.3
2023-01-09T20:48:33.378Z,9.3
2023-01-09T20:54:08.662Z,9.3
2023-01-09T20:59:43.913Z,9.3
2023-01-09T21:05:19.314Z,9.2
2023-01-09T21:11:00.579Z,9.2
2023-01-09T21:16:35.919Z,9.2
2023-01-09T21:22:50.221Z,9.2
2023-01-09T21:28:59.602Z,9.2
2023-01-09T21:34:43.691Z,9.2
2023-01-09T21:40:26.415Z,9.2
2023-01-09T21:46:01.965Z,9.2
2023-01-09T21:51:43.591Z,9.2
2023-01-09T21:57:19.087Z,9.3
2023-01-09T22:02:55.416Z,9.4
2023-01-09T22:08:35.072Z,9.5
2023-01-09T22:14:14.188Z,9.5
2023-01-09T22:19:49.206Z,9.6
2023-01-09T22:25:24.113Z,9.7
2023-01-09T22:30:59.717Z,9.7
2023-01-09T22:36:35.005Z,9.7
2023-01-09T22:42:30.529Z,9.7
2023-01-09T22:48:41.227Z,9.7
2023-01-09T22:54:17.331Z,9.6
2023-01-09T23:00:26.343Z,9.5
2023-01-09T23:06:02.857Z,9.5
2023-01-09T23:11:47.019Z,9.5
2023-01-09T23:18:00.348Z,9.5
2023-01-09T23:23:43.112Z,9.5
2023-01-09T23:29:18.051Z,9.5
2023-01-09T23:34:53.105Z,9.5
2023-01-09T23:40:28.304Z,9.4
2023-01-09T23:46:10.710Z,9.3
2023-01-09T23:51:46.447Z,9.3
2023-01-09T23:57:24.172Z,9.3
